aviador You're here:

KMHL Decoded Metar

in
Report Time2017-05-30 10:55:00
UTC Time2017-05-30 11:14:29
Flight Rules vfr VFR
WindCalm
Visibility9999 m
Phenomena:N/A
Clouds:N/A
Expected CloudBase > 800 ft AGL from Temp-Dew spread
CeilingNone
Temp13°C
Dew Point11°C (88% RH)
QNH1019 hPa
Raw Report
KMHL 301055Z AUTO 00000KT 10SM CLR 13/11 A3009 RMK AO2=

Extra information for KMHL:More info

Social comments